Time;durP1;ratioP1;P1;durP2;ratioP2;P2;SDS_P1;SDS_P2;PMS_P1;PMS_P2;Temp;Humidity;BMP_temperature;BMP_pressure;BME280_temperature;BME280_humidity;BME280_pressure;Samples;Min_cycle;Max_cycle;Signal;HPM_P1;HPM_P2
2021/09/01 00:01:53;;;;;;;7.47;3.33;;;;;;;22.45;44.78;102296.09;5010485;28;20065;-78
2021/09/01 00:04:20;;;;;;;8.30;3.80;;;;;;;22.43;44.74;102295.34;5010592;28;20112;-79
2021/09/01 00:06:47;;;;;;;7.38;3.47;;;;;;;22.43;44.27;102298.09;5008822;28;20112;-79
2021/09/01 00:09:13;;;;;;;6.18;3.25;;;;;;;22.41;44.57;102301.00;5008394;28;20413;-79
2021/09/01 00:11:41;;;;;;;7.10;3.42;;;;;;;22.39;44.82;102297.53;5011139;28;20104;-78
2021/09/01 00:14:08;;;;;;;8.77;3.95;;;;;;;22.39;44.43;102306.72;5014467;28;20505;-78
2021/09/01 00:16:34;;;;;;;7.47;3.35;;;;;;;22.37;44.70;102305.97;5013597;28;20069;-78
2021/09/01 00:19:04;;;;;;;7.40;4.15;;;;;;;22.40;44.69;102307.59;5022516;28;20096;-78
2021/09/01 00:21:32;;;;;;;7.00;3.63;;;;;;;22.39;44.98;102308.63;4995973;28;20046;-78
2021/09/01 00:23:59;;;;;;;7.47;3.60;;;;;;;22.38;44.94;102304.09;4999975;28;20108;-79
2021/09/01 00:26:27;;;;;;;7.03;3.65;;;;;;;22.41;44.79;102312.09;5012577;28;20417;-78
2021/09/01 00:28:53;;;;;;;8.60;3.60;;;;;;;22.38;44.84;102310.50;5019421;28;20042;-78
2021/09/01 00:31:20;;;;;;;7.57;3.90;;;;;;;22.39;44.68;102312.25;5014049;28;20069;-79
2021/09/01 00:33:48;;;;;;;7.70;3.92;;;;;;;22.40;44.66;102311.22;5014165;28;20708;-79
2021/09/01 00:36:15;;;;;;;8.40;3.83;;;;;;;22.38;44.75;102304.09;5013039;28;20072;-78
2021/09/01 00:38:42;;;;;;;5.40;3.50;;;;;;;22.39;45.02;102308.63;5013449;28;20077;-79
2021/09/01 00:41:15;;;;;;;7.97;3.35;;;;;;;22.42;45.29;102315.72;5011571;28;20060;-79
2021/09/01 00:43:44;;;;;;;7.40;3.28;;;;;;;22.39;44.85;102315.03;5012813;28;20052;-78
2021/09/01 00:46:11;;;;;;;8.32;3.88;;;;;;;22.36;44.66;102309.75;5013141;28;20082;-79
2021/09/01 00:48:37;;;;;;;6.30;3.45;;;;;;;22.37;44.90;102313.41;5025267;28;20076;-79
2021/09/01 00:51:04;;;;;;;6.22;3.58;;;;;;;22.37;44.70;102313.41;5011371;28;20084;-79
2021/09/01 00:53:34;;;;;;;7.32;3.63;;;;;;;22.41;45.23;102312.09;5013643;28;20073;-79
2021/09/01 00:56:01;;;;;;;9.80;4.07;;;;;;;22.40;44.69;102310.38;5012823;28;20053;-79
2021/09/01 00:58:34;;;;;;;7.30;3.67;;;;;;;22.40;44.92;102313.97;5012025;28;20046;-78
2021/09/01 01:01:16;;;;;;;6.10;3.72;;;;;;;22.39;44.99;102315.03;5010209;28;20109;-79
2021/09/01 01:03:51;;;;;;;7.20;3.25;;;;;;;22.42;45.00;102311.06;5013505;28;20445;-78
2021/09/01 01:06:19;;;;;;;6.00;3.63;;;;;;;22.39;45.16;102315.03;5010919;28;20121;-78
2021/09/01 01:08:47;;;;;;;7.15;3.45;;;;;;;22.40;44.88;102311.22;4992537;28;20105;-79
2021/09/01 01:11:13;;;;;;;7.20;3.38;;;;;;;22.39;44.62;102314.16;5003596;28;20112;-78
2021/09/01 01:13:42;;;;;;;7.90;3.80;;;;;;;22.42;44.97;102311.06;5013737;28;20050;-79
2021/09/01 01:16:17;;;;;;;6.80;4.10;;;;;;;22.43;45.22;102312.81;5010966;28;20069;-79
2021/09/01 01:18:48;;;;;;;6.90;3.70;;;;;;;22.43;45.09;102307.28;5020226;28;20174;-78
2021/09/01 01:21:28;;;;;;;9.68;4.35;;;;;;;22.44;45.64;102313.69;4997821;28;20050;-78
2021/09/01 01:23:59;;;;;;;7.57;4.28;;;;;;;22.42;45.13;102313.84;4990379;28;20120;-78
2021/09/01 01:26:27;;;;;;;8.60;4.38;;;;;;;22.42;44.79;102312.97;4998495;28;20053;-79
2021/09/01 01:28:57;;;;;;;7.55;4.00;;;;;;;22.42;45.45;102324.91;5009856;28;20587;-79
2021/09/01 01:31:24;;;;;;;8.45;4.05;;;;;;;22.40;45.33;102321.44;5012227;28;20516;-78
2021/09/01 01:33:52;;;;;;;6.32;3.90;;;;;;;22.37;45.12;102319.81;5012657;28;20121;-78
2021/09/01 01:36:20;;;;;;;9.23;4.00;;;;;;;22.38;44.64;102323.47;5012649;28;20050;-79
2021/09/01 01:38:47;;;;;;;7.07;3.75;;;;;;;22.35;45.07;102327.38;5012171;28;20138;-79
2021/09/01 01:41:13;;;;;;;6.03;3.45;;;;;;;22.35;44.89;102334.81;5005902;28;20092;-79
2021/09/01 01:43:44;;;;;;;7.47;4.05;;;;;;;22.36;44.65;102323.59;5012579;28;20107;-79
2021/09/01 01:46:10;;;;;;;6.05;3.03;;;;;;;22.33;44.95;102321.09;5011051;28;20045;-79
2021/09/01 01:48:37;;;;;;;6.95;3.75;;;;;;;22.33;44.61;102318.34;5023885;28;20045;-78
2021/09/01 01:51:04;;;;;;;6.45;3.17;;;;;;;22.32;45.09;102319.34;5017640;28;20277;-79
2021/09/01 01:53:31;;;;;;;6.47;3.03;;;;;;;22.33;44.89;102323.00;4994722;28;20038;-79
2021/09/01 01:55:58;;;;;;;5.53;2.88;;;;;;;22.32;44.87;102324.00;4993879;28;20540;-79
2021/09/01 01:58:25;;;;;;;6.32;3.00;;;;;;;22.32;44.86;102326.78;5012942;28;20099;-79
2021/09/01 02:00:51;;;;;;;6.13;3.10;;;;;;;22.32;44.47;102332.31;5011129;28;20089;-79
2021/09/01 02:03:18;;;;;;;7.15;3.40;;;;;;;22.31;44.55;102333.38;4992290;28;20052;-78
2021/09/01 02:05:45;;;;;;;7.18;3.35;;;;;;;22.30;44.71;102332.47;4992037;28;20054;-79
2021/09/01 02:08:12;;;;;;;6.72;3.15;;;;;;;22.29;44.92;102327.97;5008078;28;20650;-77
2021/09/01 02:10:38;;;;;;;7.18;3.33;;;;;;;22.28;44.27;102330.88;5013170;28;20137;-76
2021/09/01 02:13:05;;;;;;;7.18;3.15;;;;;;;22.26;44.88;102332.91;5011505;28;20066;-76
2021/09/01 02:15:31;;;;;;;6.00;3.47;;;;;;;22.25;44.56;102340.31;5012694;28;20132;-76
2021/09/01 02:17:58;;;;;;;8.60;3.28;;;;;;;22.24;44.41;102334.91;5007936;28;20054;-79
2021/09/01 02:20:25;;;;;;;5.95;2.97;;;;;;;22.23;44.46;102327.66;5022028;28;20330;-79
2021/09/01 02:22:51;;;;;;;5.68;3.00;;;;;;;22.22;44.84;102328.69;5017967;28;20544;-79
2021/09/01 02:25:18;;;;;;;5.95;3.13;;;;;;;22.21;44.64;102327.81;5021972;28;20060;-78
2021/09/01 02:27:45;;;;;;;4.97;3.08;;;;;;;22.20;44.34;102326.06;5011100;28;20620;-79
2021/09/01 02:30:12;;;;;;;5.90;3.03;;;;;;;22.19;45.04;102328.94;5012586;28;20103;-78
2021/09/01 02:32:39;;;;;;;5.55;3.00;;;;;;;22.19;44.42;102326.19;5026402;28;20046;-79
2021/09/01 02:35:06;;;;;;;7.32;2.85;;;;;;;22.18;44.84;102321.66;5012719;28;20112;-79
2021/09/01 02:37:33;;;;;;;5.35;2.83;;;;;;;22.18;44.85;102318.91;5007272;28;20074;-79
2021/09/01 02:40:00;;;;;;;6.38;3.25;;;;;;;22.17;44.28;102323.56;5012069;28;20157;-79
2021/09/01 02:42:26;;;;;;;7.22;3.13;;;;;;;22.18;45.00;102322.53;5010661;28;20049;-78
2021/09/01 02:44:53;;;;;;;5.50;3.05;;;;;;;22.19;44.34;102324.28;5011899;28;20448;-78
2021/09/01 02:47:19;;;;;;;6.22;3.20;;;;;;;22.19;44.29;102317.88;5012293;28;20679;-79
2021/09/01 02:49:46;;;;;;;5.43;3.08;;;;;;;22.19;44.68;102328.94;5022880;28;20505;-79
2021/09/01 02:52:12;;;;;;;5.13;2.80;;;;;;;22.19;44.27;102329.81;5024576;28;20129;-78
2021/09/01 02:54:39;;;;;;;6.22;3.10;;;;;;;22.17;44.19;102323.56;5026710;28;20053;-78
2021/09/01 02:57:06;;;;;;;5.47;2.58;;;;;;;22.16;44.35;102313.50;5010160;28;20045;-78
2021/09/01 02:59:33;;;;;;;5.63;2.95;;;;;;;22.16;44.99;102320.91;5011188;28;20046;-79
2021/09/01 03:01:59;;;;;;;5.20;2.58;;;;;;;22.15;44.44;102321.97;5011759;28;20081;-79
2021/09/01 03:04:26;;;;;;;5.38;2.53;;;;;;;22.15;44.57;102310.91;5011169;28;20056;-79
2021/09/01 03:06:53;;;;;;;5.63;2.60;;;;;;;22.16;44.83;102316.25;5010818;28;20050;-79
2021/09/01 03:09:19;;;;;;;5.25;2.53;;;;;;;22.17;44.57;102319.91;5009512;28;20096;-78
2021/09/01 03:11:46;;;;;;;4.80;2.80;;;;;;;22.18;44.17;102310.59;5011752;28;20181;-78
2021/09/01 03:14:12;;;;;;;5.22;2.47;;;;;;;22.17;44.57;102312.50;5009747;28;20042;-78
2021/09/01 03:16:39;;;;;;;5.47;2.80;;;;;;;22.18;44.18;102316.13;5009116;28;20092;-78
2021/09/01 03:19:06;;;;;;;4.57;2.55;;;;;;;22.18;44.34;102311.47;5024199;28;20117;-79
2021/09/01 03:21:32;;;;;;;5.18;2.70;;;;;;;22.17;44.62;102315.25;5029719;28;20121;-79
2021/09/01 03:23:59;;;;;;;4.93;2.67;;;;;;;22.18;44.61;102319.78;5027253;28;20128;-79
2021/09/01 03:26:31;;;;;;;5.43;2.67;;;;;;;22.19;44.16;102317.88;4991035;28;20046;-79
2021/09/01 03:28:59;;;;;;;8.93;3.20;;;;;;;22.18;44.46;102317.00;5004367;28;20077;-78
2021/09/01 03:31:26;;;;;;;6.03;2.58;;;;;;;22.19;44.27;102318.75;5025980;28;20096;-78
2021/09/01 03:33:52;;;;;;;7.07;2.65;;;;;;;22.18;44.21;102314.25;5010614;28;20111;-78
2021/09/01 03:36:19;;;;;;;4.70;2.90;;;;;;;22.19;44.10;102324.28;5009534;28;20125;-79
2021/09/01 03:38:46;;;;;;;6.63;3.13;;;;;;;22.19;44.18;102327.06;5010216;28;20100;-78
2021/09/01 03:41:12;;;;;;;5.50;3.42;;;;;;;22.18;44.41;102319.78;5010426;28;20493;-78
2021/09/01 03:43:39;;;;;;;7.53;3.67;;;;;;;22.18;44.16;102324.44;5010767;28;20509;-78
2021/09/01 03:46:06;;;;;;;6.38;3.72;;;;;;;22.19;44.50;102328.94;5008469;28;20058;-79
2021/09/01 03:48:33;;;;;;;8.23;4.65;;;;;;;22.19;44.28;102328.94;5007700;28;20038;-79
2021/09/01 03:51:00;;;;;;;9.98;4.38;;;;;;;22.19;44.29;102337.25;5010874;28;20502;-78
2021/09/01 03:53:27;;;;;;;9.93;5.13;;;;;;;22.18;44.32;102330.84;4995144;28;20564;-78
2021/09/01 03:55:53;;;;;;;8.52;5.18;;;;;;;22.18;44.31;102329.97;5010023;28;20050;-78
2021/09/01 03:58:20;;;;;;;10.63;6.10;;;;;;;22.18;43.67;102327.19;5010559;28;20073;-78
2021/09/01 04:00:46;;;;;;;9.90;6.18;;;;;;;22.16;44.20;102330.09;5011461;28;20050;-78
2021/09/01 04:03:13;;;;;;;10.23;6.22;;;;;;;22.16;43.70;102345.81;5010417;28;20061;-78
2021/09/01 04:05:40;;;;;;;12.88;7.25;;;;;;;22.15;44.23;102342.22;5010805;28;20054;-78
2021/09/01 04:08:07;;;;;;;12.13;6.53;;;;;;;22.13;43.87;102344.25;5009961;28;20070;-78
2021/09/01 04:10:33;;;;;;;10.23;6.50;;;;;;;22.12;43.83;102336.94;5011574;28;20058;-78
2021/09/01 04:13:00;;;;;;;10.05;6.43;;;;;;;22.13;44.38;102348.91;5010586;28;20065;-78
2021/09/01 04:15:27;;;;;;;13.18;6.78;;;;;;;22.10;44.19;102341.75;5010954;28;20081;-78
2021/09/01 04:17:53;;;;;;;9.70;6.25;;;;;;;22.11;43.89;102346.25;5014697;28;20124;-78
2021/09/01 04:20:20;;;;;;;9.95;6.25;;;;;;;22.10;43.71;102343.63;5012121;28;20516;-78
2021/09/01 04:22:46;;;;;;;11.10;6.15;;;;;;;22.10;44.30;102338.09;4990567;28;20097;-79
2021/09/01 04:25:13;;;;;;;9.25;5.88;;;;;;;22.10;44.07;102346.41;5007700;28;20054;-78
2021/09/01 04:27:40;;;;;;;11.05;6.32;;;;;;;22.10;43.89;102338.97;5009583;28;20049;-79
2021/09/01 04:30:07;;;;;;;10.38;6.50;;;;;;;22.11;44.07;102337.09;5009734;28;20050;-79
2021/09/01 04:32:34;;;;;;;10.23;6.15;;;;;;;22.11;44.12;102340.72;5010123;28;20053;-79
2021/09/01 04:35:00;;;;;;;10.55;6.50;;;;;;;22.12;44.38;102355.44;5009611;28;20101;-78
2021/09/01 04:37:27;;;;;;;11.18;6.53;;;;;;;22.12;43.92;102349.91;5008119;28;20046;-79
2021/09/01 04:39:54;;;;;;;11.40;6.65;;;;;;;22.11;43.88;102349.03;5010726;28;20532;-78
2021/09/01 04:42:21;;;;;;;10.93;6.50;;;;;;;22.12;43.96;102348.03;5010498;28;20092;-79
2021/09/01 04:44:47;;;;;;;10.60;6.45;;;;;;;22.11;43.78;102348.16;5009914;28;20089;-78
2021/09/01 04:47:14;;;;;;;11.45;6.22;;;;;;;22.10;44.03;102352.81;5009953;28;20050;-79
2021/09/01 04:49:40;;;;;;;12.13;6.60;;;;;;;22.09;44.08;102348.28;5005555;28;20088;-78
2021/09/01 04:52:07;;;;;;;11.07;6.80;;;;;;;22.09;43.62;102350.19;5003988;28;20077;-78
2021/09/01 04:54:33;;;;;;;10.13;6.03;;;;;;;22.06;43.69;102353.25;5000101;28;20050;-78
2021/09/01 04:57:00;;;;;;;9.32;5.53;;;;;;;22.05;43.83;102348.72;5008431;28;20517;-78
2021/09/01 04:59:28;;;;;;;10.63;5.82;;;;;;;22.06;43.81;102356.00;5011007;28;20084;-79
2021/09/01 05:01:55;;;;;;;8.40;5.25;;;;;;;22.01;43.57;102351.75;5028937;28;20107;-79
2021/09/01 05:04:22;;;;;;;10.32;6.03;;;;;;;21.99;43.90;102353.78;5014791;28;20049;-78
2021/09/01 05:06:48;;;;;;;9.52;5.47;;;;;;;21.99;43.57;102352.91;5013133;28;20445;-78
2021/09/01 05:09:15;;;;;;;9.10;5.63;;;;;;;21.98;43.77;102363.13;5013705;28;20450;-79
2021/09/01 05:11:41;;;;;;;9.93;5.32;;;;;;;21.98;44.11;102353.94;5013379;28;20448;-79
2021/09/01 05:14:08;;;;;;;8.38;4.63;;;;;;;21.97;43.72;102347.53;5028429;28;20054;-78
2021/09/01 05:16:34;;;;;;;7.65;4.55;;;;;;;21.97;44.25;102353.06;5011478;28;20100;-79
2021/09/01 05:19:01;;;;;;;7.07;3.50;;;;;;;21.97;43.77;102352.19;5011300;28;20125;-79
2021/09/01 05:21:30;;;;;;;8.20;3.85;;;;;;;21.99;43.69;102353.78;5032579;28;20107;-79
2021/09/01 05:23:57;;;;;;;7.35;3.92;;;;;;;21.97;43.73;102355.84;5032945;28;20562;-79
2021/09/01 05:26:31;;;;;;;6.07;3.03;;;;;;;22.01;43.96;102356.41;5032383;28;20570;-78
2021/09/01 05:29:03;;;;;;;6.28;3.10;;;;;;;22.01;43.78;102364.72;5048595;28;20065;-78
2021/09/01 05:31:31;;;;;;;;;;;;;;;21.71;44.11;102357.28;5014090;28;20050;-78
2021/09/01 05:34:01;;;;;;;5.15;2.33;;;;;;;21.96;43.96;102356.81;5013456;28;20501;-78
2021/09/01 05:36:30;;;;;;;5.93;3.13;;;;;;;21.99;44.05;102358.44;5012782;28;20053;-78
2021/09/01 05:38:57;;;;;;;5.72;3.08;;;;;;;21.98;43.64;102359.47;5013006;28;20046;-78
2021/09/01 05:41:28;;;;;;;5.07;2.65;;;;;;;22.00;43.72;102366.59;5013047;28;20053;-78
2021/09/01 05:43:55;;;;;;;5.68;2.60;;;;;;;21.97;43.79;102363.25;5012965;28;20046;-79
2021/09/01 05:46:22;;;;;;;6.63;2.75;;;;;;;21.98;43.85;102359.47;5027247;28;20042;-79
2021/09/01 05:48:52;;;;;;;5.97;3.33;;;;;;;21.99;43.64;102359.31;5025337;28;20054;-78
2021/09/01 05:51:19;;;;;;;7.30;2.90;;;;;;;21.96;43.62;102359.59;5018004;28;20046;-78
2021/09/01 05:53:45;;;;;;;5.50;2.70;;;;;;;21.97;44.04;102353.06;5012837;28;20046;-78
2021/09/01 05:56:18;;;;;;;5.70;2.95;;;;;;;22.00;43.88;102361.06;5012043;28;20496;-79
2021/09/01 05:58:50;;;;;;;5.18;3.20;;;;;;;21.97;44.13;102358.59;5012181;28;20505;-78
2021/09/01 06:01:21;;;;;;;5.38;3.20;;;;;;;21.99;43.92;102361.19;5012740;28;20038;-79
2021/09/01 06:03:49;;;;;;;6.10;2.97;;;;;;;22.00;44.15;102362.97;5028166;28;20097;-79
2021/09/01 06:06:19;;;;;;;5.10;2.65;;;;;;;22.02;44.05;102364.56;5011780;28;20523;-79
2021/09/01 06:08:47;;;;;;;6.00;2.85;;;;;;;22.00;43.78;102361.06;5012650;28;20640;-78
2021/09/01 06:11:15;;;;;;;4.65;2.80;;;;;;;22.01;43.72;102370.25;5010755;28;20077;-78
2021/09/01 06:13:42;;;;;;;4.43;2.75;;;;;;;22.01;44.19;102367.47;5012381;28;20169;-78
2021/09/01 06:16:09;;;;;;;5.78;2.90;;;;;;;22.02;43.88;102375.63;5011195;28;20058;-78
2021/09/01 06:18:35;;;;;;;5.20;2.95;;;;;;;22.02;43.67;102372.00;5020008;28;20072;-78
2021/09/01 06:21:03;;;;;;;6.00;3.20;;;;;;;22.03;43.74;102376.50;5019444;28;20061;-78
2021/09/01 06:23:29;;;;;;;5.25;2.83;;;;;;;22.04;43.64;102367.22;5011923;28;20050;-78
2021/09/01 06:25:56;;;;;;;6.30;3.40;;;;;;;22.04;43.96;102369.09;5011235;28;20053;-78
2021/09/01 06:28:23;;;;;;;5.07;2.80;;;;;;;22.04;43.73;102366.34;5011992;28;20100;-78
2021/09/01 06:30:49;;;;;;;6.82;3.22;;;;;;;22.04;43.99;102371.88;5012743;28;20061;-78
2021/09/01 06:33:16;;;;;;;5.75;2.78;;;;;;;22.05;44.19;102376.38;5011366;28;20069;-78
2021/09/01 06:35:42;;;;;;;5.80;3.10;;;;;;;22.02;43.80;102370.09;5014560;28;20046;-78
2021/09/01 06:38:09;;;;;;;6.78;3.20;;;;;;;22.03;43.42;102376.50;5011114;28;20045;-78
2021/09/01 06:40:36;;;;;;;5.10;3.00;;;;;;;22.04;43.75;102383.81;5011860;28;20045;-78
2021/09/01 06:43:02;;;;;;;4.53;2.50;;;;;;;22.01;43.59;102375.78;5011019;28;20103;-78
2021/09/01 06:45:29;;;;;;;9.18;3.40;;;;;;;22.02;43.78;102380.28;5012508;28;20077;-78
2021/09/01 06:47:56;;;;;;;6.05;3.15;;;;;;;22.00;43.48;102376.78;5025434;28;20532;-78
2021/09/01 06:50:26;;;;;;;5.70;3.33;;;;;;;22.03;43.70;102382.06;5031607;28;20045;-78
2021/09/01 06:52:54;;;;;;;6.97;2.72;;;;;;;22.01;43.37;102376.66;4998159;28;20050;-78
2021/09/01 06:55:21;;;;;;;5.55;2.92;;;;;;;22.00;43.40;102374.03;5009068;28;20136;-78
2021/09/01 06:57:47;;;;;;;6.75;3.42;;;;;;;22.00;43.79;102385.09;5011974;28;20120;-78
2021/09/01 07:00:17;;;;;;;6.38;3.35;;;;;;;22.02;43.53;102381.16;5011532;28;20488;-79
2021/09/01 07:02:44;;;;;;;6.55;3.65;;;;;;;22.00;43.46;102377.66;5010950;28;20049;-78
2021/09/01 07:05:12;;;;;;;8.02;3.47;;;;;;;22.02;44.12;102380.28;5011886;28;20508;-78
2021/09/01 07:07:41;;;;;;;6.55;3.33;;;;;;;22.04;43.93;102377.41;5009908;28;20053;-78
2021/09/01 07:10:08;;;;;;;7.85;3.75;;;;;;;22.02;43.52;102383.94;5012000;28;20050;-77
2021/09/01 07:12:35;;;;;;;8.20;3.53;;;;;;;22.04;43.31;102382.94;5010585;28;20069;-78
2021/09/01 07:15:03;;;;;;;6.25;3.55;;;;;;;22.05;43.77;102384.69;5010558;28;20111;-78
2021/09/01 07:17:30;;;;;;;5.03;2.90;;;;;;;22.02;43.83;102377.53;5011859;28;20049;-78
2021/09/01 07:19:57;;;;;;;7.57;3.47;;;;;;;22.03;43.54;102382.06;5017395;28;20144;-78
2021/09/01 07:22:29;;;;;;;7.87;3.93;;;;;;;21.99;43.84;102380.56;5017268;28;20042;-78
2021/09/01 07:24:56;;;;;;;6.38;3.33;;;;;;;22.01;43.97;102384.06;5010334;28;20292;-78
2021/09/01 07:27:22;;;;;;;7.93;3.78;;;;;;;22.02;43.58;102395.00;5008638;28;20050;-78
2021/09/01 07:29:50;;;;;;;7.28;3.80;;;;;;;22.02;43.77;102397.78;5009418;28;20080;-77
2021/09/01 07:32:17;;;;;;;6.15;3.22;;;;;;;22.01;44.12;102398.78;5009856;28;20050;-78
2021/09/01 07:34:43;;;;;;;6.45;3.28;;;;;;;22.03;43.79;102406.94;5010261;28;20489;-78
2021/09/01 07:37:10;;;;;;;6.30;3.00;;;;;;;22.04;44.01;102407.81;5008789;28;20111;-78
2021/09/01 07:39:36;;;;;;;7.07;3.47;;;;;;;22.04;44.16;102408.69;5009169;28;20042;-78
2021/09/01 07:42:04;;;;;;;6.75;3.20;;;;;;;22.06;44.37;102416.88;5009759;28;20041;-78
2021/09/01 07:44:30;;;;;;;6.47;2.97;;;;;;;22.06;44.17;102414.09;5007921;28;20084;-78
2021/09/01 07:46:57;;;;;;;5.90;3.05;;;;;;;22.07;44.22;102416.72;5007495;28;20042;-78
2021/09/01 07:49:24;;;;;;;8.40;3.28;;;;;;;22.09;44.22;102424.88;5009129;28;20546;-79
2021/09/01 07:51:50;;;;;;;5.95;3.15;;;;;;;22.09;43.83;102431.28;5024945;28;20374;-78
2021/09/01 07:54:17;;;;;;;6.13;3.05;;;;;;;22.11;44.03;102440.31;5008713;28;20409;-78
2021/09/01 07:56:43;;;;;;;6.88;3.20;;;;;;;22.12;43.62;102443.97;5007111;28;20054;-78
2021/09/01 07:59:10;;;;;;;6.57;3.60;;;;;;;22.13;44.16;102442.94;4989353;28;20046;-78
2021/09/01 08:01:37;;;;;;;8.55;3.60;;;;;;;22.14;44.15;102451.13;4989066;28;20486;-78
2021/09/01 08:04:05;;;;;;;7.07;3.50;;;;;;;22.16;43.95;102448.19;5006141;28;20046;-78
2021/09/01 08:06:31;;;;;;;5.63;2.78;;;;;;;22.16;44.35;102450.94;5007689;28;20427;-79
2021/09/01 08:08:58;;;;;;;5.45;3.22;;;;;;;22.15;44.31;102452.88;5007754;28;20046;-78
2021/09/01 08:11:24;;;;;;;7.05;3.75;;;;;;;22.15;44.42;102463.06;5009043;28;20053;-78
2021/09/01 08:13:51;;;;;;;6.93;3.67;;;;;;;22.17;43.98;102455.47;5008850;28;20100;-78
2021/09/01 08:16:18;;;;;;;9.00;4.40;;;;;;;22.16;44.63;102454.59;5008887;28;20049;-78
2021/09/01 08:18:45;;;;;;;6.63;3.63;;;;;;;22.16;44.44;102457.38;5016646;28;20077;-78
2021/09/01 08:21:11;;;;;;;8.32;3.80;;;;;;;22.18;44.54;102465.53;5024842;28;20152;-79
2021/09/01 08:23:38;;;;;;;7.40;3.60;;;;;;;22.17;44.25;102464.66;5016618;28;20128;-78
2021/09/01 08:26:05;;;;;;;8.20;3.85;;;;;;;22.19;44.05;102461.75;5007133;28;20085;-79
2021/09/01 08:28:32;;;;;;;6.95;3.35;;;;;;;22.19;44.40;102472.81;5007899;28;20042;-78
2021/09/01 08:30:58;;;;;;;7.65;4.05;;;;;;;22.19;44.19;102476.47;5009192;28;20088;-79
2021/09/01 08:33:25;;;;;;;7.57;4.07;;;;;;;22.18;44.21;102466.41;5010566;28;20389;-78
2021/09/01 08:35:51;;;;;;;7.25;3.92;;;;;;;22.18;44.40;102473.84;5012552;28;20473;-78
2021/09/01 08:38:18;;;;;;;7.47;3.55;;;;;;;22.18;44.12;102476.59;5014930;28;20122;-78
2021/09/01 08:40:47;;;;;;;7.70;3.60;;;;;;;22.20;44.04;102477.34;5013804;28;20084;-78
2021/09/01 08:43:19;;;;;;;9.30;4.32;;;;;;;22.20;44.51;102478.22;5012247;28;20520;-78
2021/09/01 08:45:47;;;;;;;8.10;4.17;;;;;;;22.17;44.42;102484.03;5012226;28;20108;-79
2021/09/01 08:48:16;;;;;;;9.15;4.47;;;;;;;22.21;44.71;102493.81;5011620;28;20493;-78
2021/09/01 08:50:43;;;;;;;7.82;4.78;;;;;;;22.20;44.17;102485.66;5023248;28;20073;-79
2021/09/01 08:53:10;;;;;;;8.93;4.90;;;;;;;22.20;44.30;102486.53;5015319;28;20050;-78
2021/09/01 08:55:37;;;;;;;8.43;5.00;;;;;;;22.20;44.36;102485.66;5011906;28;20054;-78
2021/09/01 08:58:04;;;;;;;8.65;4.78;;;;;;;22.20;44.45;102481.00;5008921;28;20449;-78
2021/09/01 09:00:31;;;;;;;9.13;5.05;;;;;;;22.21;44.85;102481.88;5012822;28;20054;-78
2021/09/01 09:03:00;;;;;;;11.35;5.60;;;;;;;22.23;44.56;102483.50;5011956;28;20488;-78
2021/09/01 09:05:32;;;;;;;10.13;6.07;;;;;;;22.24;44.76;102485.22;5012277;28;20053;-78
2021/09/01 09:07:59;;;;;;;11.98;5.82;;;;;;;22.19;44.66;102482.00;5010424;28;20050;-79
2021/09/01 09:10:31;;;;;;;11.07;6.05;;;;;;;22.24;44.82;102487.09;5012960;28;20433;-78
2021/09/01 09:13:34;;;;;;;11.75;6.22;;;;;;;22.20;44.97;102481.00;5011629;28;20657;-78
2021/09/01 09:16:07;;;;;;;12.48;5.90;;;;;;;22.22;44.94;102478.97;5006504;28;20159;-77
2021/09/01 09:18:35;;;;;;;10.73;6.63;;;;;;;22.23;44.81;102480.72;5015339;28;20042;-77
2021/09/01 09:21:19;;;;;;;11.75;6.70;;;;;;;22.26;44.14;102474.88;5031807;28;20107;-78
2021/09/01 09:23:49;;;;;;;11.45;6.97;;;;;;;22.25;44.70;102483.31;5025361;28;20103;-78
2021/09/01 09:26:31;;;;;;;11.82;6.50;;;;;;;22.28;44.14;102472.00;5011033;28;20045;-78
2021/09/01 09:29:13;;;;;;;12.53;6.63;;;;;;;22.24;44.18;102479.69;5026651;28;20559;-78
2021/09/01 09:31:58;;;;;;;13.40;7.70;;;;;;;22.25;44.31;102483.31;5011908;28;20132;-78
2021/09/01 09:34:46;;;;;;;13.70;7.57;;;;;;;22.25;44.63;102477.78;5011848;28;20045;-78
2021/09/01 09:37:14;;;;;;;13.35;7.30;;;;;;;22.25;44.74;102483.31;5010602;28;20096;-78
2021/09/01 09:39:46;;;;;;;11.98;7.03;;;;;;;22.29;44.57;102485.69;5010101;28;20470;-78
2021/09/01 09:42:31;;;;;;;12.30;6.93;;;;;;;22.27;44.65;102487.72;5011006;28;20559;-78
2021/09/01 09:45:00;;;;;;;10.10;6.43;;;;;;;22.27;44.34;102484.94;5010967;28;20062;-78
2021/09/01 09:47:46;;;;;;;11.15;6.45;;;;;;;22.28;44.58;102496.91;5008580;28;20077;-79
2021/09/01 09:50:13;;;;;;;11.32;6.57;;;;;;;22.27;44.85;102486.84;5018490;28;20476;-78
2021/09/01 09:52:40;;;;;;;8.95;5.82;;;;;;;22.28;44.30;102488.59;5019630;28;20046;-78
2021/09/01 09:55:14;;;;;;;10.05;5.80;;;;;;;22.31;44.27;102500.28;5011393;28;20115;-78
2021/09/01 09:57:56;;;;;;;9.68;6.00;;;;;;;22.31;44.35;102491.09;5008134;28;20080;-78
2021/09/01 10:00:24;;;;;;;9.00;5.53;;;;;;;22.29;44.99;102501.41;5011225;28;20089;-78
2021/09/01 10:02:51;;;;;;;10.02;5.65;;;;;;;22.29;44.51;102494.00;5010171;28;20052;-79
2021/09/01 10:05:22;;;;;;;8.63;5.43;;;;;;;22.30;44.69;102490.22;5010259;28;20054;-78
2021/09/01 10:07:50;;;;;;;9.68;5.63;;;;;;;22.29;45.05;102477.41;5009981;28;20065;-77
2021/09/01 10:10:17;;;;;;;11.30;6.28;;;;;;;22.30;45.06;102475.50;5011663;28;20075;-78
2021/09/01 10:12:45;;;;;;;10.75;6.90;;;;;;;22.31;45.03;102475.38;5010795;28;20519;-78
2021/09/01 10:15:35;;;;;;;12.70;7.00;;;;;;;22.32;44.75;102476.22;5011957;28;20563;-78
2021/09/01 10:18:06;;;;;;;11.07;6.60;;;;;;;22.30;44.84;102476.38;5031174;28;20592;-78
2021/09/01 10:20:38;;;;;;;12.18;6.95;;;;;;;22.28;44.78;102475.63;5007813;28;20050;-78
2021/09/01 10:23:06;;;;;;;10.98;6.47;;;;;;;22.27;44.44;102481.31;4990058;28;20564;-78
2021/09/01 10:25:33;;;;;;;11.45;5.85;;;;;;;22.28;45.12;102477.53;4991302;28;20591;-78
2021/09/01 10:28:22;;;;;;;10.45;5.90;;;;;;;22.28;44.52;102472.00;4988068;28;20042;-78
2021/09/01 10:31:14;;;;;;;8.90;5.70;;;;;;;22.28;44.86;102474.75;5003499;28;20045;-78
2021/09/01 10:33:53;;;;;;;9.00;5.40;;;;;;;22.28;44.63;102470.09;5024893;28;20045;-78
2021/09/01 10:36:22;;;;;;;9.23;5.80;;;;;;;22.28;44.63;102472.88;5009462;28;20050;-78
2021/09/01 10:39:08;;;;;;;8.95;5.75;;;;;;;22.25;44.67;102467.59;5009647;28;20042;-78
2021/09/01 10:41:37;;;;;;;10.52;6.13;;;;;;;22.26;45.13;102468.47;5010003;28;20056;-78
2021/09/01 10:44:26;;;;;;;10.70;6.47;;;;;;;22.26;45.02;102471.25;5008504;28;20072;-78
2021/09/01 10:46:53;;;;;;;9.63;5.93;;;;;;;22.27;44.67;102461.94;5008552;28;20073;-77
2021/09/01 10:49:47;;;;;;;11.55;6.72;;;;;;;22.32;44.96;102456.84;5025345;28;20045;-78
2021/09/01 10:52:13;;;;;;;11.13;6.55;;;;;;;22.29;45.04;102458.03;4996913;28;20505;-78
2021/09/01 10:54:42;;;;;;;14.40;8.63;;;;;;;22.30;44.48;102458.91;5010148;28;20085;-76
2021/09/01 10:57:27;;;;;;;13.73;8.82;;;;;;;22.34;44.51;102464.00;4989768;28;20070;-75
2021/09/01 10:59:58;;;;;;;15.07;8.68;;;;;;;22.35;44.63;102454.69;4992124;28;20066;-76
2021/09/01 11:02:25;;;;;;;15.20;9.10;;;;;;;22.33;44.42;102455.84;5010862;28;20046;-78
2021/09/01 11:04:55;;;;;;;13.18;8.30;;;;;;;22.37;44.25;102457.31;5018386;28;20081;-77
2021/09/01 11:07:29;;;;;;;13.82;7.70;;;;;;;22.37;44.26;102458.19;5009655;28;20132;-78
2021/09/01 11:09:57;;;;;;;13.48;7.85;;;;;;;22.37;44.61;102451.78;5008828;28;20133;-78
2021/09/01 11:12:26;;;;;;;14.57;7.80;;;;;;;22.37;43.94;102458.19;5010305;28;20092;-78
2021/09/01 11:14:54;;;;;;;12.90;6.97;;;;;;;22.35;44.13;102453.81;5010309;28;20452;-78
2021/09/01 11:17:28;;;;;;;10.85;7.10;;;;;;;22.35;44.03;102449.16;5008264;28;20046;-78
2021/09/01 11:20:00;;;;;;;12.80;8.00;;;;;;;22.33;44.07;102451.16;5029578;28;20774;-77
2021/09/01 11:22:31;;;;;;;12.93;7.35;;;;;;;22.29;44.30;102448.84;5009698;28;20480;-78
2021/09/01 11:25:06;;;;;;;11.80;6.88;;;;;;;22.32;44.17;102452.19;5009416;28;20050;-78
2021/09/01 11:27:36;;;;;;;11.05;6.70;;;;;;;22.30;44.08;102450.59;5021659;28;20120;-78
2021/09/01 11:30:04;;;;;;;11.90;6.85;;;;;;;22.30;44.09;102451.47;5023651;28;20054;-78
2021/09/01 11:32:31;;;;;;;12.23;6.57;;;;;;;22.30;43.88;102448.72;5006598;28;20045;-78